Time;durP1;ratioP1;P1;durP2;ratioP2;P2;SDS_P1;SDS_P2;PMS_P1;PMS_P2;Temp;Humidity;BMP_temperature;BMP_pressure;BME280_temperature;BME280_humidity;BME280_pressure;Samples;Min_cycle;Max_cycle;Signal;HPM_P1;HPM_P2
2021/11/06 05:00:21;;;;;;;6.20;5.90;;;8.60;99.90;;;;;;6000052;23;20187;-70
2021/11/06 05:02:48;;;;;;;10.05;6.35;;;8.60;99.90;;;;;;4955725;28;20229;-70
2021/11/06 05:05:15;;;;;;;7.03;6.28;;;8.60;99.90;;;;;;4951283;28;20209;-68
2021/11/06 05:07:42;;;;;;;8.05;7.35;;;8.60;99.90;;;;;;4947744;28;20216;-70
2021/11/06 05:10:09;;;;;;;7.00;6.50;;;8.50;99.90;;;;;;4947999;28;20209;-69
2021/11/06 05:12:35;;;;;;;11.40;7.60;;;8.60;99.90;;;;;;4941294;28;20226;-69
2021/11/06 05:15:06;;;;;;;8.48;7.60;;;8.60;99.90;;;;;;4934408;29;20209;-70
2021/11/06 05:17:34;;;;;;;8.13;7.30;;;8.60;99.90;;;;;;4938843;29;20217;-70
2021/11/06 05:20:02;;;;;;;8.25;7.38;;;8.50;99.90;;;;;;4931193;29;20210;-69
2021/11/06 05:22:29;;;;;;;9.27;7.13;;;8.50;99.90;;;;;;4940204;29;20889;-69
2021/11/06 05:24:56;;;;;;;8.35;7.55;;;8.50;99.90;;;;;;4935926;29;20577;-69
2021/11/06 05:27:23;;;;;;;8.55;7.75;;;8.50;99.90;;;;;;4937059;29;20793;-69
2021/11/06 05:29:50;;;;;;;10.55;7.90;;;8.50;99.90;;;;;;4943637;28;20213;-69
2021/11/06 05:32:16;;;;;;;7.72;6.90;;;8.60;99.90;;;;;;4936977;29;20233;-70
2021/11/06 05:34:44;;;;;;;8.00;7.30;;;8.60;99.90;;;;;;4943618;29;20213;-69
2021/11/06 05:37:11;;;;;;;9.60;8.70;;;8.60;99.90;;;;;;4931333;29;20563;-69
2021/11/06 05:39:38;;;;;;;12.60;8.93;;;8.60;99.90;;;;;;4946055;29;20209;-69
2021/11/06 05:42:05;;;;;;;9.35;7.50;;;8.60;99.90;;;;;;4937568;29;20270;-69
2021/11/06 05:44:32;;;;;;;13.90;9.43;;;8.60;99.90;;;;;;4939032;29;20214;-69
2021/11/06 05:46:58;;;;;;;16.92;9.15;;;8.60;99.90;;;;;;4935225;29;20209;-69
2021/11/06 05:49:25;;;;;;;9.48;8.65;;;8.60;99.90;;;;;;4940759;29;20275;-69
2021/11/06 05:51:53;;;;;;;10.23;8.70;;;8.60;99.90;;;;;;4940075;29;20221;-69
2021/11/06 05:54:20;;;;;;;12.38;8.77;;;8.50;99.90;;;;;;4934377;29;20206;-69
2021/11/06 05:56:47;;;;;;;10.48;9.30;;;8.50;99.90;;;;;;4936875;29;20284;-70
2021/11/06 05:59:14;;;;;;;12.45;9.38;;;8.50;99.90;;;;;;4931721;29;20619;-69
2021/11/06 06:01:42;;;;;;;10.43;9.40;;;8.50;99.90;;;;;;4931456;29;20237;-69
2021/11/06 06:04:08;;;;;;;10.20;9.30;;;8.50;99.90;;;;;;4934671;29;20236;-68
2021/11/06 06:06:35;;;;;;;9.80;8.85;;;8.50;99.90;;;;;;4941646;29;20213;-70
2021/11/06 06:09:03;;;;;;;10.35;9.07;;;8.50;99.90;;;;;;4934890;29;20214;-69
2021/11/06 06:11:30;;;;;;;10.55;9.55;;;8.50;99.90;;;;;;4940367;29;20717;-69
2021/11/06 06:13:57;;;;;;;10.45;9.10;;;8.50;99.90;;;;;;4931689;29;20225;-69
2021/11/06 06:16:24;;;;;;;12.30;9.25;;;8.50;99.90;;;;;;4938351;29;20205;-70
2021/11/06 06:18:50;;;;;;;10.43;9.43;;;8.60;99.90;;;;;;4932993;29;20213;-69
2021/11/06 06:21:17;;;;;;;11.70;9.43;;;8.60;99.90;;;;;;4930761;29;20281;-70
2021/11/06 06:23:44;;;;;;;11.20;10.07;;;8.60;99.90;;;;;;4942406;29;20204;-70
2021/11/06 06:26:12;;;;;;;11.57;9.35;;;8.60;99.90;;;;;;4941338;28;20685;-69
2021/11/06 06:28:39;;;;;;;10.82;9.43;;;8.60;99.90;;;;;;4937834;29;20201;-69
2021/11/06 06:31:07;;;;;;;9.60;8.70;;;8.60;99.90;;;;;;4935515;29;20234;-69
2021/11/06 06:33:34;;;;;;;12.77;10.00;;;8.60;99.90;;;;;;4945559;29;20237;-68
2021/11/06 06:36:01;;;;;;;11.38;10.18;;;8.60;99.90;;;;;;4936447;29;20218;-68
2021/11/06 06:38:27;;;;;;;10.07;8.98;;;8.60;99.90;;;;;;4939038;29;20663;-70
2021/11/06 06:40:54;;;;;;;11.27;9.90;;;8.60;99.90;;;;;;4937194;29;20233;-69
2021/11/06 06:43:22;;;;;;;10.98;9.88;;;8.70;99.90;;;;;;4936238;29;20622;-68
2021/11/06 06:45:49;;;;;;;11.07;9.93;;;8.70;99.90;;;;;;4933877;29;20210;-69
2021/11/06 06:48:15;;;;;;;14.57;9.00;;;8.70;99.90;;;;;;4936607;29;20214;-69
2021/11/06 06:50:46;;;;;;;12.88;10.45;;;8.70;99.90;;;;;;4938066;29;20225;-69
2021/11/06 06:53:12;;;;;;;13.75;10.90;;;8.70;99.90;;;;;;4944281;29;20221;-71
2021/11/06 06:55:39;;;;;;;10.43;9.63;;;8.80;99.90;;;;;;4938325;29;20581;-69
2021/11/06 06:58:06;;;;;;;10.90;9.90;;;8.80;99.90;;;;;;4938944;29;20547;-69
2021/11/06 07:00:34;;;;;;;12.07;10.00;;;8.80;99.90;;;;;;4936612;29;20244;-70
2021/11/06 07:03:01;;;;;;;11.20;9.93;;;8.80;99.90;;;;;;4938501;29;20207;-69
2021/11/06 07:05:28;;;;;;;11.05;9.80;;;8.80;99.90;;;;;;4943921;29;20724;-69
2021/11/06 07:07:56;;;;;;;13.88;9.90;;;8.90;99.90;;;;;;4944681;29;20221;-70
2021/11/06 07:10:23;;;;;;;16.35;10.77;;;8.90;99.90;;;;;;4936873;29;20214;-70
2021/11/06 07:12:50;;;;;;;11.95;9.52;;;8.90;99.90;;;;;;4935158;29;20222;-70
2021/11/06 07:15:16;;;;;;;11.90;10.63;;;8.90;99.90;;;;;;4942040;29;20300;-69
2021/11/06 07:17:44;;;;;;;12.25;11.07;;;9.00;99.90;;;;;;4945795;28;20221;-70
2021/11/06 07:20:14;;;;;;;12.70;11.40;;;9.00;99.90;;;;;;4941225;29;20579;-70
2021/11/06 07:22:41;;;;;;;17.35;12.57;;;9.10;99.90;;;;;;4939116;29;20629;-69
2021/11/06 07:25:08;;;;;;;13.48;10.98;;;9.10;99.90;;;;;;4933313;29;20240;-70
2021/11/06 07:27:35;;;;;;;13.48;12.07;;;9.10;99.90;;;;;;4947916;29;20205;-69
2021/11/06 07:30:03;;;;;;;14.57;12.95;;;9.10;99.90;;;;;;4932637;29;20206;-69
2021/11/06 07:32:29;;;;;;;13.00;11.70;;;9.10;99.90;;;;;;4937256;29;20249;-70
2021/11/06 07:34:57;;;;;;;14.95;11.73;;;9.10;99.90;;;;;;4946360;28;20217;-69
2021/11/06 07:37:24;;;;;;;13.80;10.93;;;9.10;99.90;;;;;;4936060;29;20209;-69
2021/11/06 07:39:51;;;;;;;14.13;11.68;;;9.10;99.90;;;;;;4940431;29;20603;-70
2021/11/06 07:42:17;;;;;;;19.27;13.57;;;9.10;99.90;;;;;;4950571;29;20639;-69
2021/11/06 07:44:44;;;;;;;15.90;13.35;;;9.10;99.90;;;;;;4942601;28;20242;-70
2021/11/06 07:47:11;;;;;;;22.10;13.82;;;9.20;99.90;;;;;;4938501;29;20584;-70
2021/11/06 07:49:37;;;;;;;17.05;13.50;;;9.20;99.90;;;;;;4938791;29;20667;-70
2021/11/06 07:52:06;;;;;;;16.88;13.07;;;9.20;99.90;;;;;;4938188;29;20709;-69
2021/11/06 07:54:33;;;;;;;22.33;15.90;;;9.20;99.90;;;;;;4940762;29;20203;-70
2021/11/06 07:56:59;;;;;;;19.33;13.88;;;9.20;99.90;;;;;;4948758;28;20206;-70
2021/11/06 07:59:26;;;;;;;20.67;14.82;;;9.20;99.90;;;;;;4935969;29;20217;-70
2021/11/06 08:01:52;;;;;;;19.25;13.50;;;9.30;99.90;;;;;;4937146;29;20289;-70
2021/11/06 08:04:19;;;;;;;19.42;14.95;;;9.30;99.90;;;;;;4938230;29;20233;-69
2021/11/06 08:06:46;;;;;;;30.52;19.10;;;9.30;99.90;;;;;;4936637;29;20213;-69
2021/11/06 08:09:14;;;;;;;21.45;19.08;;;9.30;99.90;;;;;;4934337;29;20218;-69
2021/11/06 08:11:41;;;;;;;16.67;14.43;;;9.30;99.90;;;;;;4935396;29;20235;-68
2021/11/06 08:14:08;;;;;;;15.98;13.02;;;9.30;99.90;;;;;;4947701;29;20260;-69
2021/11/06 08:16:34;;;;;;;21.65;14.05;;;9.30;99.90;;;;;;4939783;28;20205;-69
2021/11/06 08:19:01;;;;;;;17.02;14.10;;;9.40;99.90;;;;;;4934697;28;20597;-69
2021/11/06 08:21:28;;;;;;;21.52;14.10;;;9.40;99.90;;;;;;4945347;29;20645;-69
2021/11/06 08:23:54;;;;;;;18.58;12.95;;;9.40;99.90;;;;;;4938864;28;20206;-69
2021/11/06 08:26:22;;;;;;;16.45;14.75;;;9.40;99.90;;;;;;4931781;29;20206;-69
2021/11/06 08:28:49;;;;;;;19.27;15.40;;;9.40;99.90;;;;;;4933058;29;20217;-70
2021/11/06 08:31:16;;;;;;;19.55;14.95;;;9.40;99.90;;;;;;4930517;29;20282;-68
2021/11/06 08:33:43;;;;;;;22.33;15.05;;;9.40;99.90;;;;;;4934352;29;20307;-70
2021/11/06 08:36:09;;;;;;;18.60;14.45;;;9.50;99.90;;;;;;4940530;29;20257;-69
2021/11/06 08:38:36;;;;;;;18.25;14.15;;;9.50;99.90;;;;;;4932690;29;20206;-69
2021/11/06 08:41:04;;;;;;;20.02;15.02;;;9.50;99.90;;;;;;4933690;29;20687;-69
2021/11/06 08:43:33;;;;;;;16.80;14.60;;;9.60;99.90;;;;;;4933055;29;20575;-69
2021/11/06 08:46:01;;;;;;;15.45;13.43;;;9.60;99.90;;;;;;4934153;29;20221;-70
2021/11/06 08:48:28;;;;;;;18.92;15.55;;;9.70;99.90;;;;;;4933195;29;20559;-69
2021/11/06 08:50:55;;;;;;;24.55;19.48;;;9.70;99.90;;;;;;4933672;29;20555;-69
2021/11/06 08:53:22;;;;;;;17.38;14.63;;;9.80;99.90;;;;;;4934450;29;20242;-69
2021/11/06 08:55:49;;;;;;;17.67;15.30;;;9.80;99.90;;;;;;4933243;29;20669;-69
2021/11/06 08:58:15;;;;;;;20.42;14.55;;;9.90;99.90;;;;;;4932220;29;20269;-70
2021/11/06 09:00:46;;;;;;;16.70;14.93;;;9.90;99.90;;;;;;4931328;29;20233;-69
2021/11/06 09:03:15;;;;;;;20.50;15.07;;;9.90;99.90;;;;;;4931137;29;20198;-71
2021/11/06 09:05:43;;;;;;;25.25;17.20;;;9.90;99.90;;;;;;4926446;29;20202;-69
2021/11/06 09:08:09;;;;;;;17.17;14.88;;;9.90;99.90;;;;;;4932146;29;20253;-70
2021/11/06 09:10:37;;;;;;;16.92;14.32;;;9.90;99.90;;;;;;4931680;29;20222;-69
2021/11/06 09:13:03;;;;;;;18.80;13.52;;;9.90;99.90;;;;;;4929447;29;20224;-69
2021/11/06 09:15:30;;;;;;;24.52;14.57;;;9.90;99.90;;;;;;4929910;29;20205;-70
2021/11/06 09:17:58;;;;;;;18.83;15.23;;;9.90;99.90;;;;;;4929408;29;20217;-68
2021/11/06 09:20:25;;;;;;;19.20;16.73;;;9.90;99.90;;;;;;4930959;29;20287;-71
2021/11/06 09:22:54;;;;;;;18.10;14.13;;;10.00;99.90;;;;;;4931657;29;20210;-70
2021/11/06 09:25:21;;;;;;;20.90;16.75;;;10.00;99.90;;;;;;4932563;29;20205;-70
2021/11/06 09:27:48;;;;;;;16.25;14.25;;;10.00;99.90;;;;;;4931942;29;20643;-69
2021/11/06 09:30:15;;;;;;;21.05;15.38;;;10.00;99.90;;;;;;4932551;29;20206;-69
2021/11/06 09:32:42;;;;;;;19.52;15.82;;;10.10;99.90;;;;;;4933492;29;20233;-69
2021/11/06 09:35:12;;;;;;;21.35;16.38;;;10.10;99.90;;;;;;4932858;29;20218;-69
2021/11/06 09:37:39;;;;;;;17.35;14.90;;;10.10;99.90;;;;;;4932051;29;20568;-71
2021/11/06 09:40:08;;;;;;;19.15;17.10;;;10.20;99.90;;;;;;4940800;29;20213;-70
2021/11/06 09:42:36;;;;;;;19.73;15.20;;;10.20;99.90;;;;;;4936899;29;20727;-70
2021/11/06 09:45:03;;;;;;;19.60;16.58;;;10.20;99.90;;;;;;4931923;29;20301;-69
2021/11/06 09:47:31;;;;;;;17.88;14.93;;;10.20;99.90;;;;;;4931217;29;20225;-69
2021/11/06 09:49:57;;;;;;;17.27;15.32;;;10.20;99.90;;;;;;4930820;29;20702;-69
2021/11/06 09:52:25;;;;;;;17.35;15.65;;;10.20;99.90;;;;;;4929932;29;20756;-69
2021/11/06 09:54:52;;;;;;;20.92;16.50;;;10.20;99.90;;;;;;4930414;29;20206;-69
2021/11/06 09:57:19;;;;;;;19.13;16.08;;;10.30;99.90;;;;;;4931163;29;20428;-69
2021/11/06 09:59:45;;;;;;;17.80;15.23;;;10.30;99.90;;;;;;4929586;29;20214;-68
2021/11/06 10:02:13;;;;;;;18.35;15.45;;;10.30;99.90;;;;;;4930386;29;20304;-70
2021/11/06 10:04:40;;;;;;;16.65;14.93;;;10.30;99.90;;;;;;4936990;29;20202;-68
2021/11/06 10:07:17;;;;;;;17.35;15.40;;;10.40;99.90;;;;;;4932500;29;20202;-69
2021/11/06 10:09:57;;;;;;;19.90;17.08;;;10.40;99.90;;;;;;4932050;29;20217;-69
2021/11/06 10:12:24;;;;;;;23.98;16.25;;;10.50;99.90;;;;;;4932214;29;20264;-70
2021/11/06 10:15:03;;;;;;;18.60;16.55;;;10.50;99.90;;;;;;4932486;29;20206;-69
2021/11/06 10:17:34;;;;;;;22.10;16.08;;;10.50;99.90;;;;;;4932461;29;20218;-70
2021/11/06 10:20:22;;;;;;;18.98;16.77;;;10.50;99.90;;;;;;4930896;29;20202;-69
2021/11/06 10:22:50;;;;;;;21.73;16.05;;;10.60;99.90;;;;;;4933634;29;20201;-70
2021/11/06 10:25:21;;;;;;;19.27;17.35;;;10.60;99.90;;;;;;4941940;29;20236;-70
2021/11/06 10:27:53;;;;;;;17.63;15.48;;;10.60;99.90;;;;;;4936221;29;20237;-71
2021/11/06 10:30:24;;;;;;;23.60;16.17;;;10.60;99.90;;;;;;4927532;29;20634;-72
2021/11/06 10:33:01;;;;;;;18.02;15.35;;;10.70;99.90;;;;;;4939167;29;20221;-70
2021/11/06 10:35:31;;;;;;;21.70;15.50;;;10.70;99.90;;;;;;4936029;29;20285;-70
2021/11/06 10:37:59;;;;;;;21.65;16.65;;;10.70;99.90;;;;;;4925237;29;20209;-70
2021/11/06 10:40:31;;;;;;;19.15;16.75;;;10.80;99.90;;;;;;4930538;29;20216;-73
2021/11/06 10:43:00;;;;;;;42.92;29.75;;;10.80;99.90;;;;;;4939940;29;20574;-70
2021/11/06 10:45:29;;;;;;;22.60;15.70;;;10.80;99.90;;;;;;4931965;29;20214;-72
2021/11/06 10:48:00;;;;;;;17.40;15.18;;;10.70;99.90;;;;;;4930861;29;20217;-71
2021/11/06 10:51:03;;;;;;;18.33;15.82;;;10.70;99.90;;;;;;4932483;29;20214;-72
2021/11/06 10:53:45;;;;;;;25.63;15.90;;;10.70;99.90;;;;;;4932112;29;20245;-72
2021/11/06 10:56:34;;;;;;;19.77;16.13;;;10.70;99.90;;;;;;4932639;29;20213;-71
2021/11/06 10:59:05;;;;;;;20.08;17.02;;;10.70;99.90;;;;;;4923082;29;20202;-72
2021/11/06 11:01:34;;;;;;;19.60;16.20;;;10.80;99.90;;;;;;4931606;29;20324;-71
2021/11/06 11:04:04;;;;;;;18.13;16.00;;;10.80;99.90;;;;;;4935145;29;20296;-72
2021/11/06 11:06:37;;;;;;;20.67;15.82;;;10.80;99.90;;;;;;4932018;29;20285;-72
2021/11/06 11:09:08;;;;;;;16.75;14.20;;;10.80;99.90;;;;;;4912707;29;20226;-70
2021/11/06 11:11:36;;;;;;;22.70;18.17;;;10.80;99.90;;;;;;4933818;29;20272;-71
2021/11/06 11:14:05;;;;;;;16.60;13.85;;;10.80;99.90;;;;;;4934699;29;20640;-70
2021/11/06 11:16:35;;;;;;;20.38;15.25;;;10.80;99.90;;;;;;4949831;29;20202;-69
2021/11/06 11:19:05;;;;;;;18.73;14.80;;;10.80;99.90;;;;;;4934295;29;20285;-69
2021/11/06 11:21:33;;;;;;;18.73;15.05;;;10.70;99.90;;;;;;4933101;29;20241;-70
2021/11/06 11:24:02;;;;;;;16.20;14.55;;;10.70;99.90;;;;;;4933529;29;20254;-70
2021/11/06 11:26:31;;;;;;;27.27;18.00;;;10.70;99.90;;;;;;4936679;29;20217;-69
2021/11/06 11:29:00;;;;;;;24.33;18.95;;;10.70;99.90;;;;;;4939415;29;21051;-68
2021/11/06 11:31:28;;;;;;;22.42;16.45;;;10.70;99.90;;;;;;4953345;29;20233;-69
2021/11/06 11:33:56;;;;;;;23.40;17.35;;;10.70;99.90;;;;;;4950404;28;20226;-71
2021/11/06 11:36:24;;;;;;;21.25;16.70;;;10.70;99.90;;;;;;4932183;29;20238;-70
2021/11/06 11:38:52;;;;;;;24.45;16.52;;;10.60;99.90;;;;;;4938230;29;20232;-70
2021/11/06 11:41:57;;;;;;;20.98;15.55;;;10.70;99.90;;;;;;4935139;29;20719;-71
2021/11/06 11:44:56;;;;;;;18.55;14.30;;;10.70;99.90;;;;;;4935547;29;20210;-69
2021/11/06 11:47:29;;;;;;;22.42;14.70;;;10.70;99.90;;;;;;4943714;29;20213;-70
2021/11/06 11:49:58;;;;;;;18.73;15.70;;;10.70;99.90;;;;;;4945785;28;20216;-70
2021/11/06 11:52:27;;;;;;;19.52;16.17;;;10.60;99.90;;;;;;4945919;28;20249;-70
2021/11/06 11:54:56;;;;;;;20.80;14.43;;;10.60;99.90;;;;;;4935620;29;20564;-71
2021/11/06 11:57:23;;;;;;;18.33;14.95;;;10.60;99.90;;;;;;4936245;29;20202;-71
2021/11/06 11:59:51;;;;;;;19.45;15.63;;;10.60;99.90;;;;;;4935683;29;20214;-72
2021/11/06 12:02:27;;;;;;;19.58;16.30;;;10.60;99.90;;;;;;4937336;29;20281;-71
2021/11/06 12:05:39;;;;;;;19.95;15.68;;;10.60;99.90;;;;;;4935880;29;20662;-71
2021/11/06 12:08:37;;;;;;;23.23;16.92;;;10.60;99.90;;;;;;4891660;28;20638;-70
2021/11/06 12:11:33;;;;;;;18.73;16.73;;;10.60;99.90;;;;;;4934377;29;20233;-70
2021/11/06 12:14:02;;;;;;;19.17;16.70;;;10.50;99.90;;;;;;4891519;29;20300;-70
2021/11/06 12:16:49;;;;;;;21.20;15.25;;;10.50;99.90;;;;;;4942339;29;20205;-71
2021/11/06 12:19:35;;;;;;;18.35;15.60;;;10.50;99.90;;;;;;4937601;29;20289;-70
2021/11/06 12:22:18;;;;;;;17.55;14.75;;;10.60;99.90;;;;;;4933404;29;20233;-70
2021/11/06 12:24:48;;;;;;;17.15;15.05;;;10.60;99.90;;;;;;4942439;29;20731;-70
2021/11/06 12:27:17;;;;;;;21.58;16.70;;;10.60;99.90;;;;;;4934000;29;20305;-71
2021/11/06 12:29:53;;;;;;;21.88;17.17;;;10.60;99.90;;;;;;4944746;29;20217;-70
2021/11/06 12:32:27;;;;;;;21.67;17.90;;;10.60;99.90;;;;;;4935292;29;20265;-70
2021/11/06 12:34:55;;;;;;;20.10;16.15;;;10.50;99.90;;;;;;4933868;29;20253;-69
2021/11/06 12:37:44;;;;;;;21.38;16.70;;;10.60;99.90;;;;;;4933790;29;20253;-69
2021/11/06 12:40:33;;;;;;;19.70;15.95;;;10.50;99.90;;;;;;4933799;29;20210;-70
2021/11/06 12:43:06;;;;;;;24.08;19.55;;;10.50;99.90;;;;;;4917929;29;20257;-68
2021/11/06 12:45:33;;;;;;;21.98;17.38;;;10.60;99.90;;;;;;4933801;29;20217;-70
2021/11/06 12:48:09;;;;;;;23.38;19.42;;;10.60;99.90;;;;;;4930507;29;21622;-70
2021/11/06 12:50:37;;;;;;;19.13;14.82;;;10.50;99.90;;;;;;4932321;29;20729;-70
2021/11/06 12:53:04;;;;;;;21.65;16.95;;;10.50;99.90;;;;;;4934156;29;20212;-71
2021/11/06 12:55:31;;;;;;;22.48;16.90;;;10.40;99.90;;;;;;4933452;29;20229;-70
2021/11/06 12:57:58;;;;;;;21.63;16.00;;;10.40;99.90;;;;;;4931488;29;20206;-70
2021/11/06 13:00:29;;;;;;;28.85;20.17;;;10.40;99.90;;;;;;4932869;29;20221;-70
2021/11/06 13:02:58;;;;;;;19.02;16.20;;;10.40;99.90;;;;;;4941843;29;20213;-71
2021/11/06 13:05:38;;;;;;;21.65;17.17;;;10.40;99.90;;;;;;4933353;29;20573;-72
2021/11/06 13:08:13;;;;;;;21.63;17.90;;;10.30;99.90;;;;;;4938416;29;20213;-71
2021/11/06 13:10:41;;;;;;;24.33;18.85;;;10.30;99.90;;;;;;4933349;29;20229;-70
2021/11/06 13:13:09;;;;;;;22.13;17.10;;;10.30;99.90;;;;;;4933213;29;20206;-72
2021/11/06 13:15:40;;;;;;;23.83;17.88;;;10.30;99.90;;;;;;4933636;29;20230;-70
2021/11/06 13:18:08;;;;;;;19.33;17.13;;;10.30;99.90;;;;;;4932870;29;20213;-70
2021/11/06 13:20:37;;;;;;;24.98;18.35;;;10.30;99.90;;;;;;4936119;29;20202;-69
2021/11/06 13:23:04;;;;;;;20.70;17.65;;;10.30;99.90;;;;;;4933097;29;20213;-70
2021/11/06 13:25:32;;;;;;;23.63;17.02;;;10.20;99.90;;;;;;4932626;29;20215;-70
2021/11/06 13:28:01;;;;;;;23.05;18.20;;;10.30;99.90;;;;;;4932297;29;20209;-71
2021/11/06 13:30:36;;;;;;;20.52;16.35;;;10.30;99.90;;;;;;4933975;29;20217;-71
2021/11/06 13:33:06;;;;;;;21.60;18.13;;;10.30;99.90;;;;;;4941638;28;20214;-71
2021/11/06 13:35:38;;;;;;;21.13;17.13;;;10.30;99.90;;;;;;4933067;29;20778;-70
2021/11/06 13:38:30;;;;;;;19.60;16.55;;;10.30;99.90;;;;;;4944172;29;20213;-71
2021/11/06 13:41:20;;;;;;;20.35;15.63;;;10.30;99.90;;;;;;4933021;29;20289;-70
2021/11/06 13:43:49;;;;;;;20.27;16.45;;;10.40;99.90;;;;;;4931897;29;20577;-71
2021/11/06 13:46:32;;;;;;;18.90;16.08;;;10.40;99.90;;;;;;4932605;29;20203;-70
2021/11/06 13:49:12;;;;;;;20.42;18.25;;;10.40;99.90;;;;;;4923761;29;20228;-72
2021/11/06 13:51:44;;;;;;;17.55;14.30;;;10.30;99.90;;;;;;4932051;29;20233;-71
2021/11/06 13:54:15;;;;;;;18.88;16.85;;;10.30;99.90;;;;;;4932769;29;20241;-73
2021/11/06 13:56:53;;;;;;;17.95;15.52;;;10.30;99.90;;;;;;4932903;29;20218;-70
2021/11/06 13:59:25;;;;;;;21.52;17.02;;;10.30;99.90;;;;;;4932852;29;20329;-71
2021/11/06 14:01:53;;;;;;;17.92;16.13;;;10.30;99.90;;;;;;4932527;29;20233;-71
2021/11/06 14:04:21;;;;;;;20.80;16.08;;;10.40;99.90;;;;;;4933074;29;20247;-71
2021/11/06 14:06:51;;;;;;;16.30;14.52;;;10.40;99.90;;;;;;4932160;29;20213;-70
2021/11/06 14:09:19;;;;;;;18.17;15.00;;;10.40;99.90;;;;;;4928192;29;20209;-71
2021/11/06 14:11:48;;;;;;;16.67;13.77;;;10.40;99.90;;;;;;4926274;29;20248;-71
2021/11/06 14:14:15;;;;;;;19.50;14.57;;;10.30;99.90;;;;;;4932640;29;20221;-70
2021/11/06 14:16:42;;;;;;;15.75;14.10;;;10.40;99.90;;;;;;4932509;29;20206;-70
2021/11/06 14:19:12;;;;;;;15.77;14.00;;;10.40;99.90;;;;;;4931832;29;20618;-70
2021/11/06 14:21:45;;;;;;;18.45;13.95;;;10.40;99.90;;;;;;4932259;29;20260;-71
2021/11/06 14:24:13;;;;;;;14.75;13.25;;;10.40;99.90;;;;;;4932241;29;20209;-70
2021/11/06 14:26:45;;;;;;;17.15;13.25;;;10.40;99.90;;;;;;4932739;29;20202;-71
2021/11/06 14:29:13;;;;;;;14.13;12.73;;;10.40;99.90;;;;;;4932321;29;20301;-70
2021/11/06 14:31:41;;;;;;;15.50;13.93;;;10.30;99.90;;;;;;4932041;29;20230;-71
2021/11/06 14:34:20;;;;;;;16.75;12.45;;;10.30;99.90;;;;;;4931884;29;20744;-71
2021/11/06 14:36:55;;;;;;;14.20;12.80;;;10.30;99.90;;;;;;4930743;29;20222;-70
2021/11/06 14:39:23;;;;;;;18.35;12.10;;;10.30;99.90;;;;;;4938297;29;20248;-71
2021/11/06 14:41:55;;;;;;;15.00;11.75;;;10.20;99.90;;;;;;4933079;28;20257;-72
2021/11/06 14:44:24;;;;;;;15.20;12.85;;;10.20;99.90;;;;;;4943050;28;20710;-73
2021/11/06 14:46:53;;;;;;;15.38;12.82;;;10.20;99.90;;;;;;4935450;29;20214;-70
2021/11/06 14:49:21;;;;;;;16.30;11.30;;;10.10;99.90;;;;;;4930580;29;20309;-70
2021/11/06 14:51:54;;;;;;;15.55;13.68;;;10.10;99.90;;;;;;4935578;29;20222;-72
2021/11/06 14:54:23;;;;;;;12.57;10.15;;;10.10;99.90;;;;;;4935557;29;20665;-69
2021/11/06 14:56:50;;;;;;;11.48;10.40;;;10.10;99.90;;;;;;4935036;29;20210;-70
2021/11/06 14:59:27;;;;;;;13.38;11.32;;;10.10;99.90;;;;;;4935461;29;20252;-69
2021/11/06 15:01:56;;;;;;;13.85;11.27;;;10.10;99.90;;;;;;4935231;29;20229;-69
2021/11/06 15:04:23;;;;;;;12.35;11.15;;;10.10;99.90;;;;;;4935472;29;20194;-72
2021/11/06 15:06:56;;;;;;;12.32;10.20;;;10.10;99.90;;;;;;4936022;29;20266;-69
2021/11/06 15:09:25;;;;;;;11.80;10.70;;;10.10;99.90;;;;;;4935047;29;20324;-70
2021/11/06 15:11:54;;;;;;;13.40;11.60;;;10.10;99.90;;;;;;4935270;29;20752;-70
2021/11/06 15:14:21;;;;;;;14.27;9.25;;;10.10;99.90;;;;;;4935725;29;20404;-71
2021/11/06 15:16:50;;;;;;;14.90;12.05;;;10.10;99.90;;;;;;4935042;29;20677;-70
2021/11/06 15:19:17;;;;;;;11.50;10.25;;;10.00;99.90;;;;;;4933992;29;20333;-71
2021/11/06 15:21:44;;;;;;;8.55;7.63;;;10.00;99.90;;;;;;4935255;29;20221;-70
2021/11/06 15:24:12;;;;;;;9.52;8.50;;;10.00;99.90;;;;;;4934748;29;20289;-71
2021/11/06 15:26:41;;;;;;;9.45;8.50;;;10.00;99.90;;;;;;4935473;29;20213;-73
2021/11/06 15:29:08;;;;;;;11.52;8.40;;;10.00;99.90;;;;;;4934531;29;20225;-72
2021/11/06 15:31:35;;;;;;;12.52;9.07;;;10.00;99.90;;;;;;4935239;29;20234;-72
2021/11/06 15:34:02;;;;;;;8.52;7.63;;;10.00;99.90;;;;;;4935451;29;20660;-71
2021/11/06 15:36:29;;;;;;;7.10;6.50;;;9.90;99.90;;;;;;4935679;29;20265;-71
2021/11/06 15:38:56;;;;;;;10.05;7.68;;;9.90;99.90;;;;;;4932850;29;20268;-70
2021/11/06 15:41:23;;;;;;;10.40;9.20;;;9.90;99.90;;;;;;4942150;29;20762;-70
2021/11/06 15:43:51;;;;;;;9.57;8.63;;;9.90;99.90;;;;;;4947402;29;20229;-71
2021/11/06 15:46:17;;;;;;;9.55;8.60;;;9.90;99.90;;;;;;4954716;29;20209;-71
2021/11/06 15:48:44;;;;;;;7.68;7.07;;;9.90;99.90;;;;;;4954330;29;20245;-72
2021/11/06 15:51:15;;;;;;;7.30;6.75;;;9.90;99.90;;;;;;4954435;29;20237;-71
2021/11/06 15:53:42;;;;;;;7.35;6.60;;;9.90;99.90;;;;;;4935171;28;20206;-71
2021/11/06 15:56:09;;;;;;;8.48;7.68;;;9.90;99.90;;;;;;4934883;29;20706;-71
2021/11/06 15:58:36;;;;;;;10.93;7.15;;;9.90;99.90;;;;;;4934531;29;20545;-72
2021/11/06 16:01:08;;;;;;;9.75;8.85;;;9.90;99.90;;;;;;4933651;29;20238;-72
2021/11/06 16:03:35;;;;;;;8.95;8.15;;;9.80;99.90;;;;;;4935303;29;20214;-70
2021/11/06 16:06:02;;;;;;;11.18;8.40;;;9.90;99.90;;;;;;4934539;29;20257;-73
2021/11/06 16:08:28;;;;;;;7.30;6.60;;;10.00;99.90;;;;;;4930359;29;20280;-71
2021/11/06 16:10:55;;;;;;;11.15;10.15;;;10.00;99.90;;;;;;4933811;29;20222;-71
2021/11/06 16:13:24;;;;;;;9.30;7.15;;;10.00;99.90;;;;;;4934397;29;20257;-71
2021/11/06 16:15:54;;;;;;;7.22;6.63;;;10.00;99.90;;;;;;4934216;29;20325;-72
2021/11/06 16:18:26;;;;;;;8.70;7.88;;;10.00;99.90;;;;;;4933786;29;20232;-73
2021/11/06 16:20:55;;;;;;;11.73;8.75;;;10.00;99.90;;;;;;4933779;29;20292;-72
2021/11/06 16:23:22;;;;;;;17.35;9.85;;;10.00;99.90;;;;;;4938281;29;20214;-72
2021/11/06 16:25:49;;;;;;;18.52;10.75;;;10.00;99.90;;;;;;4934591;29;20213;-72
2021/11/06 16:28:16;;;;;;;8.75;7.75;;;10.00;99.90;;;;;;4933670;29;20205;-71
2021/11/06 16:30:43;;;;;;;18.02;9.27;;;10.00;99.90;;;;;;4931860;29;20702;-70
2021/11/06 16:33:10;;;;;;;7.15;6.65;;;10.00;99.90;;;;;;4935255;29;20228;-70
2021/11/06 16:35:42;;;;;;;7.55;6.53;;;9.90;99.90;;;;;;4948964;29;20280;-71
2021/11/06 16:38:09;;;;;;;7.45;6.75;;;9.90;99.90;;;;;;4933794;29;20213;-72
2021/11/06 16:40:35;;;;;;;9.50;6.40;;;9.90;99.90;;;;;;4933331;29;20204;-72
2021/11/06 16:43:02;;;;;;;7.00;6.30;;;9.90;99.90;;;;;;4926596;29;20595;-71
2021/11/06 16:45:29;;;;;;;12.40;7.00;;;9.90;99.90;;;;;;4932362;29;20889;-72
2021/11/06 16:47:56;;;;;;;7.80;5.82;;;10.00;99.90;;;;;;4935216;29;20241;-72
2021/11/06 16:50:23;;;;;;;6.70;6.10;;;9.90;99.90;;;;;;4933878;29;20210;-74
2021/11/06 16:52:51;;;;;;;7.63;6.55;;;9.90;99.90;;;;;;4934523;29;20210;-72
2021/11/06 16:55:18;;;;;;;6.45;5.85;;;9.90;99.90;;;;;;4932253;29;20217;-73
2021/11/06 16:57:46;;;;;;;6.72;6.05;;;10.00;99.90;;;;;;4930574;29;20213;-74
2021/11/06 17:00:16;;;;;;;7.30;6.55;;;10.00;99.90;;;;;;4931158;29;20308;-72
2021/11/06 17:02:43;;;;;;;6.43;5.85;;;9.90;99.90;;;;;;4933726;29;20313;-71
2021/11/06 17:05:10;;;;;;;6.82;6.32;;;9.90;99.90;;;;;;4934826;29;20265;-71
2021/11/06 17:07:39;;;;;;;7.75;6.75;;;9.90;99.90;;;;;;4933893;29;20370;-71
2021/11/06 17:10:16;;;;;;;7.47;6.78;;;9.90;99.90;;;;;;4934155;29;20206;-72
2021/11/06 17:12:44;;;;;;;7.57;6.85;;;9.90;99.90;;;;;;4935456;29;20355;-72
2021/11/06 17:15:12;;;;;;;9.18;7.10;;;9.90;99.90;;;;;;4929858;29;20270;-70
2021/11/06 17:17:39;;;;;;;8.05;6.38;;;9.90;99.90;;;;;;4934201;29;20209;-70
2021/11/06 17:20:07;;;;;;;7.07;6.47;;;9.90;99.90;;;;;;4933139;29;20226;-70
2021/11/06 17:22:34;;;;;;;8.68;7.88;;;9.90;99.90;;;;;;4933153;29;20241;-70
2021/11/06 17:25:00;;;;;;;10.77;7.20;;;9.90;99.90;;;;;;4939878;29;20216;-71
2021/11/06 17:27:31;;;;;;;7.47;6.78;;;9.90;99.90;;;;;;4931932;29;20623;-69
2021/11/06 17:29:58;;;;;;;6.93;6.25;;;9.90;99.90;;;;;;4933422;29;20225;-70
2021/11/06 17:32:24;;;;;;;7.32;6.60;;;9.90;99.90;;;;;;4932860;29;20698;-71
2021/11/06 17:34:52;;;;;;;6.93;6.32;;;9.90;99.90;;;;;;4933362;29;20213;-71
2021/11/06 17:37:19;;;;;;;7.90;7.05;;;9.90;99.90;;;;;;4933774;29;20687;-71
2021/11/06 17:39:46;;;;;;;7.35;6.72;;;9.90;99.90;;;;;;4939224;29;20214;-71
2021/11/06 17:42:13;;;;;;;6.95;6.32;;;9.90;99.90;;;;;;4939973;29;20233;-71
2021/11/06 17:44:41;;;;;;;6.35;5.75;;;9.90;99.90;;;;;;4917148;29;20255;-71
2021/11/06 17:47:08;;;;;;;9.85;7.05;;;9.90;99.90;;;;;;4941442;29;20214;-72
2021/11/06 17:49:42;;;;;;;6.50;5.88;;;9.90;99.90;;;;;;4925852;29;20202;-71